LIPE Airport Information

Runway Information
Runway 12 Length 9186 ft width 150 ft
Elevation 120 ft Threshold 1007 ft Heading 117
Runway 30 Length 9186 ft Width 150 ft
Elevation 120 ft Threshold 1188 ft Heading 297
Airport Frequencies
Type APP Name APP Frequency 120.1 MHZ
Type ATIS Name ATIS Frequency 134.875 MHZ
Type GND Name GND Frequency 129.925 MHZ
Type TWR Name TWR Frequency 120.8 MHZ
Airport Navaids
Type VOR-DME Name Bologna Frequency 112200 KHZ
Type NDB Name Bologna Frequency 413 KHZ
Airport Weather Information & NOTAM
ADDS - METARS form results

(1837 UTC 20 October 2021)
Data provider http://aviationweather.gov/metar/data/
 
METAR text: LIPE 201820Z 19009KT 9999 SCT060 18/09 Q1021
Conditions at: LIPE (BOLOGNA/BORGO (A, IT) observed 1820 UTC 20 October 2021
Temperature: 18.0°C (64°F)
Dewpoint: 9.0°C (48°F) [RH = 56%]
Pressure (altimeter): 30.15 inches Hg (1021.0 mb)
Winds: from the S (190 degrees) at 10 MPH (9 knots; 4.6 m/s)
Visibility: 6 or more miles (10+ km)
Ceiling: at least 12,000 feet AGL
Clouds: scattered clouds at 6000 feet AGL
Weather: no significant weather observed at this time

METAR text: LIPE 201750Z 19008KT 9999 SCT060 18/09 Q1021
Conditions at: LIPE (BOLOGNA/BORGO (A, IT) observed 1750 UTC 20 October 2021
Temperature: 18.0°C (64°F)
Dewpoint: 9.0°C (48°F) [RH = 56%]
Pressure (altimeter): 30.15 inches Hg (1021.0 mb)
Winds: from the S (190 degrees) at 9 MPH (8 knots; 4.1 m/s)
Visibility: 6 or more miles (10+ km)
Ceiling: at least 12,000 feet AGL
Clouds: scattered clouds at 6000 feet AGL
Weather: no significant weather observed at this time

Forecast for: LIPE (BOLOGNA/BORGO (A, IT)
Text: TAF LIPE 201700Z 2018/2118 VRB05KT 9000 FEW060
Forecast period: 1800 UTC 20 October 2021 to 0800 UTC 21 October 2021
Forecast type: FROM: standard forecast or significant change
Winds: variable direction winds at 6 MPH (5 knots; 2.6 m/s)
Visibility: 6 miles (9 km)
Ceiling: at least 12,000 feet AGL
Clouds: few clouds at 6000 feet AGL
Weather: no significant weather forecast for this period
Text: BECMG 2108/2110 20010KT
Forecast period: 0800 to 1400 UTC 21 October 2021
Forecast type: BECOMING: Conditions expected to become as follows by 1000 UTC 21 October 2021
Winds: from the SSW (200 degrees) at 12 MPH (10 knots; 5.1 m/s)
Visibility: 6 miles (9 km)
Ceiling: at least 12,000 feet AGL
Clouds: few clouds at 6000 feet AGL
Weather: no significant weather forecast for this period
Text: BECMG 2114/2116 VRB05KT
Forecast period: 1400 to 1800 UTC 21 October 2021
Forecast type: BECOMING: Conditions expected to become as follows by 1600 UTC 21 October 2021
Winds: variable direction winds at 6 MPH (5 knots; 2.6 m/s)
Visibility: 6 miles (9 km)
Ceiling: at least 12,000 feet AGL
Clouds: few clouds at 6000 feet AGL
Weather: no significant weather forecast for this period